Time;durP1;ratioP1;P1;durP2;ratioP2;P2;SDS_P1;SDS_P2;PMS_P1;PMS_P2;Temp;Humidity;BMP_temperature;BMP_pressure;BME280_temperature;BME280_humidity;BME280_pressure;Samples;Min_cycle;Max_cycle;Signal;HPM_P1;HPM_P2
2023/06/19 00:01:27;;;;;;;4.75;3.70;;;;;;;-142.57;53.22;115900.28;5030877;28;20030;-80
2023/06/19 00:03:53;;;;;;;7.55;3.92;;;;;;;-142.57;52.79;115900.28;5031829;28;20084;-82
2023/06/19 00:06:18;;;;;;;6.10;3.75;;;;;;;-142.57;53.51;115900.28;5031384;28;20080;-80
2023/06/19 00:08:44;;;;;;;7.78;3.80;;;;;;;-142.57;54.54;115900.28;5013656;28;20097;-80
2023/06/19 00:11:10;;;;;;;11.05;3.90;;;;;;;-142.57;54.77;115900.28;5027914;28;20041;-82
2023/06/19 00:13:35;;;;;;;7.30;4.05;;;;;;;-142.57;56.07;115900.28;5019906;28;20056;-82
2023/06/19 00:16:01;;;;;;;7.88;4.25;;;;;;;-142.57;56.25;115900.28;5021021;28;20041;-83
2023/06/19 00:18:27;;;;;;;6.38;3.70;;;;;;;-142.57;55.91;115900.28;5001203;28;20054;-82
2023/06/19 00:20:55;;;;;;;4.97;3.58;;;;;;;-142.57;54.58;115900.28;5020010;28;20057;-80
2023/06/19 00:23:24;;;;;;;9.25;3.72;;;;;;;-142.57;53.11;115900.28;5019144;28;20056;-82
2023/06/19 00:25:50;;;;;;;7.47;3.67;;;;;;;-142.57;52.84;115900.28;4999292;28;20549;-84
2023/06/19 00:28:19;;;;;;;4.45;3.70;;;;;;;-142.57;52.54;115900.28;5017292;28;20129;-81
2023/06/19 00:30:45;;;;;;;6.20;3.45;;;;;;;-142.57;53.20;115900.28;5014142;28;20103;-84
2023/06/19 00:33:13;;;;;;;7.38;3.75;;;;;;;-142.57;54.67;115900.28;5004439;28;20030;-81
2023/06/19 00:35:38;;;;;;;6.50;4.32;;;;;;;-142.57;56.18;115900.28;5034696;28;20029;-80
2023/06/19 00:38:05;;;;;;;5.53;3.92;;;;;;;-142.57;57.42;115900.28;5034388;28;20120;-81
2023/06/19 00:40:33;;;;;;;6.75;4.43;;;;;;;-142.57;57.79;115900.28;4999803;28;20120;-81
2023/06/19 00:42:59;;;;;;;5.78;4.10;;;;;;;-142.57;57.88;115900.28;5034906;28;20033;-80
2023/06/19 00:45:25;;;;;;;6.88;3.60;;;;;;;-142.57;60.22;115900.28;5033619;28;20159;-80
2023/06/19 00:47:52;;;;;;;5.75;4.13;;;;;;;-142.57;61.44;115900.28;5033464;28;20033;-80
2023/06/19 00:50:18;;;;;;;6.70;4.38;;;;;;;-142.57;62.31;115900.28;5034118;28;20034;-80
2023/06/19 00:52:44;;;;;;;10.55;4.30;;;;;;;-142.57;63.41;115900.28;5033011;28;20040;-81
2023/06/19 00:55:10;;;;;;;7.20;4.40;;;;;;;-142.57;62.56;115900.28;5016055;28;20047;-82
2023/06/19 00:57:36;;;;;;;5.88;3.92;;;;;;;-142.57;62.58;115900.28;5034616;28;20530;-81
2023/06/19 01:00:07;;;;;;;5.55;4.22;;;;;;;-142.57;62.69;115900.28;5033492;28;20107;-82
2023/06/19 01:02:34;;;;;;;5.60;3.88;;;;;;;-142.57;62.45;115900.28;5014738;28;20037;-80
2023/06/19 01:05:00;;;;;;;5.80;4.10;;;;;;;-142.57;62.07;115900.28;5032756;28;20044;-82
2023/06/19 01:07:33;;;;;;;8.25;4.40;;;;;;;-142.57;62.15;115900.28;5017044;28;20061;-82
2023/06/19 01:10:06;;;;;;;9.82;5.03;;;;;;;-142.57;61.72;115900.28;4995747;28;20072;-81
2023/06/19 01:12:38;;;;;;;6.97;4.40;;;;;;;-142.57;61.64;115900.28;4995175;28;20046;-81
2023/06/19 01:15:07;;;;;;;4.97;4.00;;;;;;;-142.57;61.90;115900.28;5012985;28;20030;-81
2023/06/19 01:17:35;;;;;;;6.25;4.20;;;;;;;-142.57;61.98;115900.28;5012638;28;20125;-82
2023/06/19 01:20:06;;;;;;;6.65;3.80;;;;;;;-142.57;61.59;115900.28;5012916;28;20096;-80
2023/06/19 01:22:32;;;;;;;12.57;4.20;;;;;;;-142.57;61.41;115900.28;4979670;28;20068;-83
2023/06/19 01:25:00;;;;;;;5.25;3.90;;;;;;;-142.57;62.02;115900.28;4995020;28;20025;-81
2023/06/19 01:27:29;;;;;;;5.80;4.30;;;;;;;-142.57;62.36;115900.28;4994877;28;20057;-81
2023/06/19 01:29:57;;;;;;;6.82;4.07;;;;;;;-142.57;61.67;115900.28;5013212;28;20574;-83
2023/06/19 01:32:48;;;;;;;10.10;4.30;;;;;;;-142.57;61.16;115900.28;5013409;28;20038;-82
2023/06/19 01:35:17;;;;;;;10.23;4.20;;;;;;;-142.57;61.19;115900.28;5012522;28;20180;-82
2023/06/19 01:37:44;;;;;;;5.07;3.20;;;;;;;-142.57;60.67;115900.28;5013850;28;20442;-81
2023/06/19 01:40:11;;;;;;;6.82;3.85;;;;;;;-142.57;61.64;115900.28;4994902;28;20045;-81
2023/06/19 01:42:40;;;;;;;11.70;4.60;;;;;;;-142.57;62.06;115900.28;5014727;28;20133;-84
2023/06/19 01:45:07;;;;;;;6.07;3.80;;;;;;;-142.57;61.78;115900.28;5017056;28;20042;-82
2023/06/19 01:47:32;;;;;;;6.40;4.13;;;;;;;-142.57;61.99;115900.28;5016241;28;20030;-81
2023/06/19 01:49:58;;;;;;;7.88;4.25;;;;;;;-142.57;60.55;115900.28;4998782;28;20121;-83
2023/06/19 01:52:24;;;;;;;7.00;3.90;;;;;;;-142.57;60.89;115900.28;5016615;28;20502;-82
2023/06/19 01:54:51;;;;;;;8.20;4.10;;;;;;;-142.57;60.44;115900.28;5017333;28;20034;-80
2023/06/19 01:57:17;;;;;;;5.75;3.78;;;;;;;-142.57;60.66;115900.28;5000921;28;20111;-80
2023/06/19 01:59:43;;;;;;;5.78;3.83;;;;;;;-142.57;60.45;115900.28;4999208;28;20056;-82
2023/06/19 02:02:10;;;;;;;5.40;3.67;;;;;;;-142.57;60.54;115900.28;4998786;28;20036;-82
2023/06/19 02:04:35;;;;;;;8.77;3.83;;;;;;;-142.57;59.51;115900.28;4998658;28;20034;-82
2023/06/19 02:07:02;;;;;;;4.45;3.45;;;;;;;-142.57;59.79;115900.28;5015900;28;20049;-84
2023/06/19 02:09:28;;;;;;;7.97;3.83;;;;;;;-142.57;59.73;115900.28;5016813;28;20034;-81
2023/06/19 02:11:53;;;;;;;5.15;3.95;;;;;;;-142.57;59.22;115900.28;5015763;28;20091;-85
2023/06/19 02:14:19;;;;;;;6.18;3.85;;;;;;;-142.57;58.93;115900.28;4998469;28;20087;-84
2023/06/19 02:16:46;;;;;;;7.68;3.83;;;;;;;-142.57;59.11;115900.28;4998206;28;20557;-81
2023/06/19 02:19:11;;;;;;;13.20;4.20;;;;;;;-142.57;59.51;115900.28;4998344;28;20117;-83
2023/06/19 02:21:38;;;;;;;7.70;4.10;;;;;;;-142.57;59.58;115900.28;5015827;28;20399;-83
2023/06/19 02:24:05;;;;;;;6.63;4.07;;;;;;;-142.57;60.46;115900.28;4998692;28;20472;-82
2023/06/19 02:26:31;;;;;;;5.30;3.90;;;;;;;-142.57;60.05;115900.28;4981719;28;20053;-82
2023/06/19 02:28:57;;;;;;;5.45;3.78;;;;;;;-142.57;60.03;115900.28;5015351;28;20056;-84
2023/06/19 02:31:23;;;;;;;6.05;4.47;;;;;;;-142.57;59.88;115900.28;5015792;28;20467;-83
2023/06/19 02:33:49;;;;;;;6.78;3.97;;;;;;;-142.57;59.99;115900.28;5014895;28;20049;-81
2023/06/19 02:36:19;;;;;;;7.35;4.00;;;;;;;-142.57;60.75;115900.28;4997024;28;20030;-81
2023/06/19 02:38:53;;;;;;;7.55;4.03;;;;;;;-142.57;60.86;115900.28;4997447;28;20479;-82
2023/06/19 02:41:21;;;;;;;7.28;4.43;;;;;;;-142.57;60.74;115900.28;5015224;28;20100;-83
2023/06/19 02:43:46;;;;;;;5.38;4.10;;;;;;;-142.57;60.82;115900.28;5015344;28;20045;-83
2023/06/19 02:46:12;;;;;;;6.57;4.30;;;;;;;-142.57;61.30;115900.28;4997526;28;20503;-80
2023/06/19 02:48:38;;;;;;;6.15;4.07;;;;;;;-142.57;61.51;115900.28;4997434;28;20387;-82
2023/06/19 02:51:03;;;;;;;8.02;4.65;;;;;;;-142.57;61.20;115900.28;5016024;28;20398;-81
2023/06/19 02:53:29;;;;;;;6.97;4.43;;;;;;;-142.57;60.99;115900.28;5014656;28;20107;-82
2023/06/19 02:55:54;;;;;;;6.75;3.97;;;;;;;-142.57;60.67;115900.28;5015331;28;20497;-83
2023/06/19 02:58:20;;;;;;;6.45;4.30;;;;;;;-142.57;61.13;115900.28;5014837;28;20363;-81
2023/06/19 03:00:46;;;;;;;7.00;3.95;;;;;;;-142.57;61.44;115900.28;5014546;28;20029;-83
2023/06/19 03:03:14;;;;;;;8.43;4.43;;;;;;;-142.57;61.86;115900.28;5014439;28;20041;-83
2023/06/19 03:05:40;;;;;;;13.63;5.13;;;;;;;-142.57;61.43;115900.28;5014689;28;20360;-84
2023/06/19 03:08:05;;;;;;;6.07;4.40;;;;;;;-142.57;61.16;115900.28;5015112;28;20480;-83
2023/06/19 03:10:31;;;;;;;8.40;5.07;;;;;;;-142.57;60.84;115900.28;4996480;28;20038;-82
2023/06/19 03:12:58;;;;;;;7.63;4.53;;;;;;;-142.57;60.58;115900.28;4996869;28;20029;-83
2023/06/19 03:15:24;;;;;;;9.25;4.57;;;;;;;-142.57;61.13;115900.28;4997168;28;20072;-83
2023/06/19 03:17:52;;;;;;;7.05;4.78;;;;;;;-142.57;61.87;115900.28;4997658;28;20096;-84
2023/06/19 03:20:17;;;;;;;7.85;4.45;;;;;;;-142.57;61.07;115900.28;4998008;28;20380;-83
2023/06/19 03:22:50;;;;;;;8.63;4.50;;;;;;;-142.57;60.93;115900.28;5014298;28;20153;-84
2023/06/19 03:25:19;;;;;;;5.50;3.88;;;;;;;-142.57;61.32;115900.28;4996727;28;20042;-83
2023/06/19 03:27:45;;;;;;;15.60;4.75;;;;;;;-142.57;61.14;115900.28;4980415;28;20064;-81
2023/06/19 03:30:12;;;;;;;7.28;4.40;;;;;;;-142.57;60.64;115900.28;4996501;28;20069;-82
2023/06/19 03:32:40;;;;;;;8.90;4.60;;;;;;;-142.57;61.47;115900.28;4996309;28;20437;-81
2023/06/19 03:35:08;;;;;;;10.02;4.78;;;;;;;-142.57;61.92;115900.28;4996427;28;20121;-80
2023/06/19 03:37:38;;;;;;;6.97;4.10;;;;;;;-142.57;62.47;115900.28;4996269;28;20533;-82
2023/06/19 03:40:05;;;;;;;6.38;4.47;;;;;;;-142.57;61.63;115900.28;4996362;28;20041;-81
2023/06/19 03:42:35;;;;;;;7.20;4.07;;;;;;;-142.57;62.83;115900.28;4996825;28;20030;-83
2023/06/19 03:45:00;;;;;;;6.13;4.32;;;;;;;-142.57;63.30;115900.28;4996959;28;20049;-83
2023/06/19 03:47:26;;;;;;;7.18;4.20;;;;;;;-142.57;63.59;115900.28;5005828;28;20021;-81
2023/06/19 03:49:52;;;;;;;10.20;4.07;;;;;;;-142.57;62.93;115900.28;4983877;28;21354;-82
2023/06/19 03:52:18;;;;;;;5.82;4.60;;;;;;;-142.57;63.43;115900.28;4996393;28;20077;-82
2023/06/19 03:54:44;;;;;;;5.20;4.00;;;;;;;-142.57;62.89;115900.28;5013771;28;20038;-82
2023/06/19 03:57:09;;;;;;;7.60;4.15;;;;;;;-142.57;62.26;115900.28;4996106;28;20443;-81
2023/06/19 03:59:35;;;;;;;11.82;4.07;;;;;;;-142.57;61.55;115900.28;4995577;28;20049;-81
2023/06/19 04:02:00;;;;;;;8.50;4.85;;;;;;;-142.57;61.49;115900.28;5013744;28;20109;-82
2023/06/19 04:04:26;;;;;;;9.00;4.25;;;;;;;-142.57;61.11;115900.28;5013260;28;20125;-81
2023/06/19 04:06:51;;;;;;;5.97;4.60;;;;;;;-142.57;60.98;115900.28;4995297;28;20038;-83
2023/06/19 04:09:17;;;;;;;7.40;4.32;;;;;;;-142.57;60.92;115900.28;5013629;28;20464;-80
2023/06/19 04:11:42;;;;;;;9.82;4.53;;;;;;;-142.57;61.30;115900.28;5013291;28;20065;-81
2023/06/19 04:14:08;;;;;;;8.60;4.43;;;;;;;-142.57;60.92;115900.28;4995913;28;20030;-82
2023/06/19 04:16:35;;;;;;;8.63;4.78;;;;;;;-142.57;60.91;115900.28;4995439;28;20537;-82
2023/06/19 04:19:00;;;;;;;12.65;5.68;;;;;;;-142.57;60.91;115900.28;4996401;28;20038;-81
2023/06/19 04:21:26;;;;;;;9.20;4.50;;;;;;;-142.57;61.51;115900.28;4995430;28;20128;-81
2023/06/19 04:23:51;;;;;;;10.32;5.05;;;;;;;-142.57;62.37;115900.28;4995446;28;20128;-84
2023/06/19 04:26:18;;;;;;;6.53;3.90;;;;;;;-142.57;62.07;115900.28;4996816;28;20084;-83
2023/06/19 04:28:43;;;;;;;6.93;4.97;;;;;;;-142.57;62.10;115900.28;4997549;28;20038;-81
2023/06/19 04:31:09;;;;;;;6.88;4.28;;;;;;;-142.57;62.08;115900.28;5014528;28;20033;-82
2023/06/19 04:33:34;;;;;;;11.10;5.13;;;;;;;-142.57;63.73;115900.28;5013322;28;20506;-80
2023/06/19 04:36:00;;;;;;;13.00;5.05;;;;;;;-142.57;63.70;115900.28;5013382;28;20494;-81
2023/06/19 04:38:25;;;;;;;15.20;4.85;;;;;;;-142.57;63.89;115900.28;5013439;28;20493;-81
2023/06/19 04:40:51;;;;;;;9.05;4.80;;;;;;;-142.57;63.64;115900.28;5015077;28;20037;-81
2023/06/19 04:43:17;;;;;;;10.90;4.22;;;;;;;-142.57;63.75;115900.28;5012708;28;20479;-79
2023/06/19 04:45:48;;;;;;;7.32;5.10;;;;;;;-142.57;64.25;115900.28;5013136;28;20329;-81
2023/06/19 04:48:14;;;;;;;6.43;4.22;;;;;;;-142.57;64.85;115900.28;5012852;28;20033;-80
2023/06/19 04:50:40;;;;;;;9.63;4.65;;;;;;;-142.57;64.93;115900.28;5012927;28;20157;-79
2023/06/19 04:53:05;;;;;;;10.88;4.93;;;;;;;-142.57;65.43;115900.28;5012875;28;20046;-82
2023/06/19 04:55:31;;;;;;;11.45;5.03;;;;;;;-142.57;64.81;115900.28;5013034;28;20037;-80
2023/06/19 04:57:57;;;;;;;10.55;4.70;;;;;;;-142.57;64.62;115900.28;5012452;28;20125;-80
2023/06/19 05:00:23;;;;;;;19.25;4.80;;;;;;;-142.57;64.50;115900.28;5007974;28;20029;-79
2023/06/19 05:02:49;;;;;;;13.25;5.38;;;;;;;-142.57;64.56;115900.28;5032460;28;20022;-83
2023/06/19 05:05:16;;;;;;;7.45;4.43;;;;;;;-142.57;64.32;115900.28;5032516;28;20394;-82
2023/06/19 05:07:42;;;;;;;10.30;4.43;;;;;;;-142.57;62.83;115900.28;5022137;28;20026;-84
2023/06/19 05:10:08;;;;;;;8.80;5.00;;;;;;;-142.57;64.15;115900.28;5025809;28;20053;-86
2023/06/19 05:12:35;;;;;;;10.07;5.10;;;;;;;-142.57;64.61;115900.28;5022455;28;20025;-88
2023/06/19 05:15:00;;;;;;;10.25;5.05;;;;;;;-142.57;63.66;115900.28;5021289;28;20510;-83
2023/06/19 05:17:29;;;;;;;11.27;5.78;;;;;;;-142.57;63.57;115900.28;5025503;28;20116;-87
2023/06/19 05:19:56;;;;;;;7.65;4.28;;;;;;;-142.57;63.81;115900.28;5031589;28;20030;-85
2023/06/19 05:22:23;;;;;;;11.05;4.88;;;;;;;-142.57;64.50;115900.28;5031218;28;20034;-84
2023/06/19 05:24:49;;;;;;;12.13;5.00;;;;;;;-142.57;64.86;115900.28;5029723;28;20029;-88
2023/06/19 05:27:18;;;;;;;9.40;4.95;;;;;;;-142.57;65.13;115900.28;5000717;28;20064;-87
2023/06/19 05:29:44;;;;;;;9.50;4.80;;;;;;;-142.57;63.45;115900.28;5038484;28;20030;-90
2023/06/19 05:32:10;;;;;;;10.18;4.85;;;;;;;-142.57;63.17;115900.28;5029166;28;20052;-88
2023/06/19 05:34:35;;;;;;;8.50;4.88;;;;;;;-142.57;62.72;115900.28;4998660;28;20120;-87
2023/06/19 05:37:03;;;;;;;8.57;5.00;;;;;;;-142.57;64.13;115900.28;5015443;28;20103;-87
2023/06/19 05:39:29;;;;;;;8.45;5.15;;;;;;;-142.57;66.00;115900.28;5006078;28;20029;-84
2023/06/19 05:41:54;;;;;;;7.60;5.07;;;;;;;-142.57;66.48;115900.28;5019327;28;20049;-85
2023/06/19 05:44:20;;;;;;;9.70;5.47;;;;;;;-142.57;68.67;115900.28;5019661;28;20083;-84
2023/06/19 05:46:45;;;;;;;14.35;5.25;;;;;;;-142.57;69.50;115900.28;5020113;28;20471;-87
2023/06/19 05:49:11;;;;;;;7.18;4.95;;;;;;;-142.57;69.10;115900.28;5004564;28;20037;-87
2023/06/19 05:51:37;;;;;;;8.90;4.97;;;;;;;-142.57;69.89;115900.28;5022043;28;20038;-88
2023/06/19 05:54:03;;;;;;;10.40;5.15;;;;;;;-142.57;70.49;115900.28;5024430;28;20030;-90
2023/06/19 05:56:33;;;;;;;15.30;5.43;;;;;;;-142.57;69.73;115900.28;5005917;28;20072;-91
2023/06/19 05:58:59;;;;;;;11.70;5.60;;;;;;;-142.57;69.13;115900.28;5011885;28;20037;-90
2023/06/19 06:01:27;;;;;;;14.20;5.43;;;;;;;-142.57;68.70;115900.28;5035343;28;20052;-92
2023/06/19 06:03:57;;;;;;;18.67;5.03;;;;;;;-142.57;68.11;115900.28;5030280;28;20064;-92
2023/06/19 06:06:26;;;;;;;12.43;5.30;;;;;;;-142.57;68.68;115900.28;5010765;28;20041;-89
2023/06/19 06:08:52;;;;;;;6.88;4.25;;;;;;;-142.57;68.51;115900.28;5010387;28;20053;-89
2023/06/19 06:11:23;;;;;;;17.88;5.03;;;;;;;-142.57;67.90;115900.28;5032810;28;20048;-88
2023/06/19 06:13:48;;;;;;;9.73;5.03;;;;;;;-142.57;68.08;115900.28;5029587;28;20091;-89
2023/06/19 06:16:15;;;;;;;11.35;5.38;;;;;;;-142.57;68.52;115900.28;5009590;28;20045;-87
2023/06/19 06:18:41;;;;;;;15.18;5.95;;;;;;;-142.57;68.14;115900.28;5008874;28;20034;-89
2023/06/19 06:21:08;;;;;;;17.52;6.20;;;;;;;-142.57;67.69;115900.28;5044261;28;20493;-90
2023/06/19 06:23:33;;;;;;;10.68;5.10;;;;;;;-142.57;65.21;115900.28;5013312;28;20069;-91
2023/06/19 06:26:02;;;;;;;11.88;4.93;;;;;;;-142.57;61.87;115900.28;5023727;28;20152;-92
2023/06/19 06:28:28;;;;;;;21.75;5.45;;;;;;;-142.57;56.42;115900.28;5020300;28;20096;-88
2023/06/19 06:31:00;;;;;;;10.73;4.65;;;;;;;-142.57;53.13;115900.28;5017916;28;20034;-91
2023/06/19 06:33:25;;;;;;;9.13;4.63;;;;;;;-142.57;49.19;115900.28;4984797;28;20038;-86
2023/06/19 06:35:51;;;;;;;8.20;4.35;;;;;;;-142.57;46.29;115900.28;4998723;28;20026;-88
2023/06/19 06:38:17;;;;;;;8.82;4.05;;;;;;;-142.57;46.22;115900.28;5016107;28;20066;-87
2023/06/19 06:40:43;;;;;;;7.45;3.80;;;;;;;-142.57;45.18;115900.28;4998433;28;20113;-87
2023/06/19 06:43:08;;;;;;;8.52;4.30;;;;;;;-142.57;43.63;115900.28;5017440;28;20041;-85
2023/06/19 06:45:34;;;;;;;10.73;3.90;;;;;;;-142.57;42.86;115900.28;5020449;28;20049;-87
2023/06/19 06:48:00;;;;;;;30.50;4.88;;;;;;;-142.57;40.45;115900.28;5019110;28;20026;-82
2023/06/19 06:50:25;;;;;;;10.68;3.72;;;;;;;-142.57;38.87;115900.28;5019936;28;20060;-83
2023/06/19 06:52:51;;;;;;;7.47;4.43;;;;;;;-142.57;37.18;115900.28;5016237;28;20037;-84
2023/06/19 06:55:16;;;;;;;7.45;3.60;;;;;;;-142.57;37.36;115900.28;4998664;28;20034;-86
2023/06/19 06:57:42;;;;;;;9.13;3.92;;;;;;;-142.57;36.97;115900.28;5015307;28;20380;-85
2023/06/19 07:00:11;;;;;;;9.80;4.78;;;;;;;-142.57;37.24;115900.28;4997907;28;20545;-83
2023/06/19 07:02:39;;;;;;;14.60;5.18;;;;;;;-142.57;37.65;115900.28;5015681;28;20160;-82
2023/06/19 07:05:06;;;;;;;15.90;5.57;;;;;;;-142.57;38.88;115900.28;5015919;28;20026;-86
2023/06/19 07:07:32;;;;;;;15.45;5.57;;;;;;;-142.57;40.11;115900.28;5016698;28;20030;-83
2023/06/19 07:09:57;;;;;;;9.02;4.70;;;;;;;-142.57;40.64;115900.28;4997646;28;20498;-85
2023/06/19 07:12:23;;;;;;;8.45;4.50;;;;;;;-142.57;39.73;115900.28;4998235;28;20037;-85
2023/06/19 07:14:48;;;;;;;9.50;4.47;;;;;;;-142.57;39.86;115900.28;4997197;28;20046;-84
2023/06/19 07:17:14;;;;;;;10.43;4.72;;;;;;;-142.57;41.11;115900.28;5015096;28;20034;-84
2023/06/19 07:19:39;;;;;;;11.02;4.80;;;;;;;-142.57;41.87;115900.28;5026213;28;20507;-83
2023/06/19 07:22:05;;;;;;;10.93;4.95;;;;;;;-142.57;42.59;115900.28;5029771;28;20052;-84
2023/06/19 07:24:31;;;;;;;8.70;4.78;;;;;;;-142.57;42.39;115900.28;5027048;28;20029;-83
2023/06/19 07:26:59;;;;;;;6.70;4.65;;;;;;;-142.57;42.11;115900.28;5010634;28;20111;-87
2023/06/19 07:29:25;;;;;;;14.93;5.57;;;;;;;-142.57;42.50;115900.28;5007541;28;20060;-87
2023/06/19 07:31:51;;;;;;;10.10;5.05;;;;;;;-142.57;42.86;115900.28;5003821;28;20034;-88
2023/06/19 07:34:16;;;;;;;13.73;4.90;;;;;;;-142.57;43.26;115900.28;5016367;28;20064;-88
2023/06/19 07:36:43;;;;;;;8.32;5.20;;;;;;;-142.57;42.02;115900.28;5016333;28;20061;-87
2023/06/19 07:39:08;;;;;;;13.02;5.10;;;;;;;-142.57;40.83;115900.28;5027792;28;20479;-86
2023/06/19 07:41:34;;;;;;;7.03;4.82;;;;;;;-142.57;39.71;115900.28;5021055;28;20121;-86
2023/06/19 07:43:59;;;;;;;11.13;5.03;;;;;;;-142.57;38.88;115900.28;5019463;28;20105;-86
2023/06/19 07:46:25;;;;;;;8.13;4.80;;;;;;;-142.57;37.84;115900.28;5003654;28;20065;-85
2023/06/19 07:48:51;;;;;;;12.77;4.90;;;;;;;-142.57;37.13;115900.28;5023142;28;20030;-86
2023/06/19 07:51:16;;;;;;;7.75;4.95;;;;;;;-142.57;35.96;115900.28;5025149;28;20033;-85
2023/06/19 07:53:43;;;;;;;10.30;5.13;;;;;;;-142.57;35.92;115900.28;5005540;28;20038;-89
2023/06/19 07:56:09;;;;;;;9.43;5.72;;;;;;;-142.57;35.73;115900.28;5022584;28;20374;-87
2023/06/19 07:58:35;;;;;;;15.73;5.13;;;;;;;-142.57;36.65;115900.28;5006919;28;20503;-85
2023/06/19 08:01:01;;;;;;;11.85;5.50;;;;;;;-142.57;36.96;115900.28;5022903;28;20018;-88
2023/06/19 08:03:27;;;;;;;11.90;5.60;;;;;;;-142.57;35.35;115900.28;5004196;28;20447;-87
2023/06/19 08:05:52;;;;;;;11.10;5.00;;;;;;;-142.57;34.26;115900.28;5028015;28;20037;-86
2023/06/19 08:08:18;;;;;;;6.95;4.82;;;;;;;-142.57;34.96;115900.28;5020433;28;20402;-85
2023/06/19 08:10:44;;;;;;;11.80;4.88;;;;;;;-142.57;35.15;115900.28;5020158;28;20030;-84
2023/06/19 08:13:11;;;;;;;18.73;5.82;;;;;;;-142.57;35.38;115900.28;5021938;28;20045;-84
2023/06/19 08:15:37;;;;;;;9.93;5.50;;;;;;;-142.57;35.82;115900.28;4990576;28;20121;-85
2023/06/19 08:18:03;;;;;;;14.63;5.97;;;;;;;-142.57;35.27;115900.28;5034959;28;20102;-85
2023/06/19 08:20:28;;;;;;;11.25;6.15;;;;;;;-142.57;34.78;115900.28;5035038;28;20026;-84
2023/06/19 08:22:54;;;;;;;9.32;6.45;;;;;;;-142.57;34.22;115900.28;5015686;28;20029;-86
2023/06/19 08:25:20;;;;;;;14.52;5.45;;;;;;;-142.57;33.46;115900.28;5032760;28;20064;-86
2023/06/19 08:27:46;;;;;;;10.43;5.30;;;;;;;-142.57;33.52;115900.28;5035858;28;20041;-85
2023/06/19 08:30:12;;;;;;;9.25;4.97;;;;;;;-142.57;32.68;115900.28;5018494;28;20030;-84
2023/06/19 08:32:39;;;;;;;11.52;4.88;;;;;;;-142.57;32.24;115900.28;5017059;28;20091;-84
2023/06/19 08:35:04;;;;;;;9.73;4.90;;;;;;;-142.57;33.14;115900.28;5020027;28;20038;-85
2023/06/19 08:37:30;;;;;;;8.50;4.50;;;;;;;-142.57;33.89;115900.28;5014337;28;20037;-85
2023/06/19 08:39:56;;;;;;;9.32;4.70;;;;;;;-142.57;33.59;115900.28;5036350;28;20041;-84
2023/06/19 08:42:22;;;;;;;7.18;4.32;;;;;;;-142.57;33.42;115900.28;5025852;28;20036;-85
2023/06/19 08:44:48;;;;;;;8.65;4.70;;;;;;;-142.57;33.45;115900.28;5034136;28;20133;-84
2023/06/19 08:47:14;;;;;;;8.25;4.50;;;;;;;-142.57;33.26;115900.28;5036745;28;20395;-83
2023/06/19 08:49:40;;;;;;;8.73;4.00;;;;;;;-142.57;33.33;115900.28;4998724;28;20030;-84
2023/06/19 08:52:06;;;;;;;8.63;4.35;;;;;;;-142.57;33.63;115900.28;5032271;28;20034;-83
2023/06/19 08:54:43;;;;;;;13.45;4.70;;;;;;;-142.57;33.85;115900.28;4997656;28;20099;-84
2023/06/19 08:57:11;;;;;;;5.38;4.35;;;;;;;-142.57;33.26;115900.28;5005112;28;20035;-84
2023/06/19 08:59:36;;;;;;;12.05;4.28;;;;;;;-142.57;33.35;115900.28;5033262;28;20045;-84
2023/06/19 09:02:02;;;;;;;10.30;4.68;;;;;;;-142.57;33.78;115900.28;5032695;28;20063;-85
2023/06/19 09:04:30;;;;;;;10.95;4.57;;;;;;;-142.57;33.18;115900.28;5032623;28;20021;-83
2023/06/19 09:06:58;;;;;;;15.50;4.65;;;;;;;-142.57;32.63;115900.28;5002403;28;20046;-86
2023/06/19 09:09:25;;;;;;;7.70;3.88;;;;;;;-142.57;32.09;115900.28;5013615;28;20038;-84
2023/06/19 09:11:57;;;;;;;6.45;4.30;;;;;;;-142.57;32.28;115900.28;5012607;28;20399;-84
2023/06/19 09:14:36;;;;;;;8.50;4.03;;;;;;;-142.57;31.84;115900.28;5012824;28;20129;-84
2023/06/19 09:17:03;;;;;;;6.90;4.32;;;;;;;-142.57;31.96;115900.28;5029087;28;20042;-84
2023/06/19 09:19:29;;;;;;;8.30;4.07;;;;;;;-142.57;31.50;115900.28;5030391;28;20037;-84
2023/06/19 09:22:08;;;;;;;6.65;4.53;;;;;;;-142.57;31.35;115900.28;5014503;28;20037;-83
2023/06/19 09:24:38;;;;;;;10.20;5.32;;;;;;;-142.57;30.98;115900.28;5026311;28;20076;-86
2023/06/19 09:27:14;;;;;;;9.15;4.13;;;;;;;-142.57;30.19;115900.28;5030591;28;20387;-85
2023/06/19 09:29:41;;;;;;;8.13;4.15;;;;;;;-142.57;31.16;115900.28;5024380;28;20037;-89
2023/06/19 09:32:24;;;;;;;12.82;4.78;;;;;;;-142.57;31.59;115900.28;5000694;28;20061;-86
2023/06/19 09:34:53;;;;;;;7.93;4.32;;;;;;;-142.57;31.68;115900.28;5021004;28;20064;-85
2023/06/19 09:37:23;;;;;;;10.82;4.68;;;;;;;-142.57;31.54;115900.28;5022581;28;20131;-84
2023/06/19 09:40:00;;;;;;;12.27;5.05;;;;;;;-142.57;31.27;115900.28;5025540;28;20034;-86
2023/06/19 09:42:34;;;;;;;7.47;5.20;;;;;;;-142.57;31.56;115900.28;5026464;28;20030;-85
2023/06/19 09:45:05;;;;;;;7.32;4.63;;;;;;;-142.57;31.79;115900.28;5024926;28;20030;-87
2023/06/19 09:47:36;;;;;;;7.53;4.65;;;;;;;-142.57;32.28;115900.28;5003415;28;20088;-86
2023/06/19 09:50:03;;;;;;;10.43;4.05;;;;;;;-142.57;31.76;115900.28;5005759;28;20032;-85
2023/06/19 09:52:29;;;;;;;6.30;4.25;;;;;;;-142.57;31.36;115900.28;5018905;28;20022;-86
2023/06/19 09:55:04;;;;;;;7.32;4.45;;;;;;;-142.57;30.56;115900.28;4997303;28;20052;-87
2023/06/19 09:57:31;;;;;;;9.80;4.50;;;;;;;-142.57;30.24;115900.28;4997708;28;20038;-86
2023/06/19 10:00:07;;;;;;;6.07;4.10;;;;;;;-142.57;30.51;115900.28;5014213;28;20030;-84
2023/06/19 10:02:39;;;;;;;9.35;3.90;;;;;;;-142.57;30.33;115900.28;5025843;28;20589;-84
2023/06/19 10:05:08;;;;;;;11.13;4.10;;;;;;;-142.57;30.79;115900.28;5025721;28;20042;-84
2023/06/19 10:07:35;;;;;;;14.13;4.50;;;;;;;-142.57;30.68;115900.28;5018986;28;20041;-84
2023/06/19 10:10:08;;;;;;;12.05;4.32;;;;;;;-142.57;30.65;115900.28;5017117;28;20037;-87
2023/06/19 10:12:44;;;;;;;8.05;4.00;;;;;;;-142.57;30.80;115900.28;5019846;28;20038;-87
2023/06/19 10:15:21;;;;;;;9.52;4.00;;;;;;;-142.57;30.71;115900.28;5017670;28;20029;-86
2023/06/19 10:17:49;;;;;;;7.68;4.20;;;;;;;-142.57;30.33;115900.28;5021307;28;20042;-88
2023/06/19 10:20:32;;;;;;;7.75;4.38;;;;;;;-142.57;30.84;115900.28;5002967;28;20476;-87
2023/06/19 10:23:10;;;;;;;10.75;4.55;;;;;;;-142.57;30.65;115900.28;5003313;28;20038;-87
2023/06/19 10:25:40;;;;;;;8.88;4.00;;;;;;;-142.57;30.50;115900.28;5003180;28;20069;-87
2023/06/19 10:28:31;;;;;;;12.95;4.00;;;;;;;-142.57;30.21;115900.28;5016887;28;20030;-84
2023/06/19 10:31:01;;;;;;;9.13;4.18;;;;;;;-142.57;30.30;115900.28;5028395;28;20382;-86
2023/06/19 10:33:30;;;;;;;9.75;4.63;;;;;;;-142.57;29.48;115900.28;5036674;28;20045;-85
2023/06/19 10:35:56;;;;;;;10.73;4.07;;;;;;;-142.57;29.74;115900.28;5019417;28;20076;-83
2023/06/19 10:38:21;;;;;;;9.80;4.50;;;;;;;-142.57;30.15;115900.28;5037974;28;20025;-85
2023/06/19 10:40:47;;;;;;;7.65;3.78;;;;;;;-142.57;30.26;115900.28;5037052;28;20040;-85
2023/06/19 10:43:20;;;;;;;11.07;4.40;;;;;;;-142.57;29.97;115900.28;5037741;28;20033;-89
2023/06/19 10:45:46;;;;;;;10.57;4.30;;;;;;;-142.57;29.81;115900.28;5037284;28;20108;-84
2023/06/19 10:48:18;;;;;;;17.40;4.47;;;;;;;-142.57;29.99;115900.28;5036021;28;20072;-85
2023/06/19 10:50:43;;;;;;;9.02;3.78;;;;;;;-142.57;30.12;115900.28;5035791;28;20026;-87
2023/06/19 10:53:09;;;;;;;8.43;4.25;;;;;;;-142.57;30.34;115900.28;5018561;28;20045;-85
2023/06/19 10:55:34;;;;;;;8.85;4.00;;;;;;;-142.57;30.13;115900.28;5036107;28;20121;-83
2023/06/19 10:58:00;;;;;;;27.83;5.25;;;;;;;-142.57;30.16;115900.28;5035883;28;20092;-85
2023/06/19 11:00:28;;;;;;;6.57;3.75;;;;;;;-142.57;30.52;115900.28;5035021;28;20025;-88
2023/06/19 11:02:57;;;;;;;6.40;4.22;;;;;;;-142.57;30.99;115900.28;5018268;28;20048;-88
2023/06/19 11:05:26;;;;;;;7.68;4.25;;;;;;;-142.57;31.55;115900.28;5034648;28;20036;-87
2023/06/19 11:07:53;;;;;;;13.82;4.60;;;;;;;-142.57;31.65;115900.28;5034994;28;20132;-86